Terminal Aerodrome Forecast
Issued by NWS

Home | Current Version | Previous Version | Graphics & Text | Print | Product List | Glossary On
Versions: 1 2 3 4 5 6 7 8 9 10 11 12 13 14
000
FTUS43 KMPX 152300
TAFRWF
TAF
KRWF 152338Z 1600/1624 34018G25KT 2SM -SN BR OVC006
      TEMPO 1600/1604 3/4SM -SN BR OVC010
     FM160400 33022G30KT 3SM -SN BR OVC012
     FM160700 33021G28KT P6SM OVC015
     FM161800 32015G21KT P6SM OVC023=

USA.gov is the U.S. government's official web portal to all federal, state and local government web resources and services.